Archer, Idaho
Current Conditions -  °F | °C
As of 8:53 AM on Monday 24 Nov 2014 (Local Time) from KRXE Reporting Station
Clear Clear  
Wind Chill: 18°   Ceiling: Unl
Heat Index: 26°   Visibility: 10mi
Dew Point: 21°   Wind: 7mph
Humidity: 81%   Direction: 190°S
Pressure: 30.23"   Gusts: NA
Location:  43.7568°N, 111.624°W
Report Text: KRXE 241553Z AUTO 19006KT 10SM CLR M03/M06 A3023 RMK AO2 SLP270 T10331061
Loading
Personal Weather Stations






























Interactive Weather Map New forecast layout! Learn more

10-Day Weather Forecast

Advertisements
Track Severe Weather on mobile